Overview Statistics Trail Chart Weather Telemetry Raw packets
 

This is the latest recevied weather packets stored in our database for station/object W4UWO. If no packets are shown the sender has not sent any weather packets the latest 10 day(s).

<< 61 62 63 64 65 66 67 >>
Time Temp. Humidity Pressure Rain* Wind** Luminosity Snow
1788196734 33.89° C 51% 1021.7 hPa 0 mm - 936 W/m² -
1788196431 33.89° C 52% 1021.7 hPa 0 mm - 319 W/m² -
1788196128 33.89° C 50% 1021.9 hPa 0 mm - 941 W/m² -
1788195823 33.33° C 52% 1021.9 hPa 0 mm - 911 W/m² -
1788195519 33.89° C 49% 1021.8 hPa 0 mm - 869 W/m² -
1788195216 33.33° C 54% 1021.9 hPa 0 mm - 848 W/m² -
1788194912 33.89° C 51% 1021.8 hPa 0 mm - 829 W/m² -
1788194608 33.89° C 51% 1022 hPa 0 mm - 825 W/m² -
1788194303 33.33° C 52% 1022.1 hPa 0 mm - 755 W/m² -
1788193999 33.33° C 52% 1022.2 hPa 0 mm - 807 W/m² -
1788193697 32.78° C 54% 1022.2 hPa 0 mm - 813 W/m² -
1788193392 32.78° C 53% 1022.1 hPa 0 mm - 753 W/m² -
1788193091 32.78° C 54% 1022.2 hPa 0 mm - 176 W/m² -
1788192788 32.78° C 53% 1022 hPa 0 mm - 782 W/m² -
1788192488 33.33° C 53% 1022.2 hPa 0 mm - 778 W/m² -
1788192183 32.22° C 58% 1022.1 hPa 0 mm - 733 W/m² -
1788191882 32.78° C 57% 1022.4 hPa 0 mm - 720 W/m² -
1788191578 32.22° C 57% 1022.3 hPa 0 mm - 707 W/m² -
1788191274 31.67° C 59% 1022.4 hPa 0 mm - 689 W/m² -
1788190970 31.67° C 59% 1022.4 hPa 0 mm - 683 W/m² -
1788190668 31.67° C 60% 1022.4 hPa 0 mm - 673 W/m² -
1788190364 31.67° C 59% 1022.3 hPa 0 mm - 594 W/m² -
1788190059 31.67° C 58% 1022.3 hPa 0 mm - 661 W/m² -
1788189756 31.67° C 58% 1022.2 hPa 0 mm - 648 W/m² -
1788189456 31.67° C 58% 1022.4 hPa 0 mm - 656 W/m² -

* Rain latest hour (hover to see other rain measurements)
** Current wind speed in m/s (hover to see current wind gust speed)